createdAt,value
2018-11-03T00:00:21.791Z,0.00
2018-11-03T00:01:21.794Z,0.00
2018-11-03T00:02:21.793Z,0.00
2018-11-03T00:03:21.805Z,0.00
2018-11-03T00:04:22.016Z,0.00
2018-11-03T00:05:21.705Z,0.00
2018-11-03T00:06:21.714Z,0.00
2018-11-03T00:07:21.737Z,0.00
2018-11-03T00:08:21.724Z,0.00
2018-11-03T00:09:21.865Z,0.00
2018-11-03T00:10:21.737Z,0.00
2018-11-03T00:11:21.653Z,0.00
2018-11-03T00:12:21.661Z,0.00
2018-11-03T00:13:21.672Z,0.00
2018-11-03T00:14:21.866Z,0.00
2018-11-03T00:15:21.668Z,0.00
2018-11-03T00:16:21.677Z,0.00
2018-11-03T00:17:21.597Z,0.00
2018-11-03T00:18:21.587Z,0.00
2018-11-03T00:19:21.692Z,0.00
2018-11-03T00:20:21.635Z,0.00
2018-11-03T00:21:21.640Z,0.00
2018-11-03T00:22:21.605Z,0.00
2018-11-03T00:23:21.515Z,0.00
2018-11-03T00:24:21.643Z,0.00
2018-11-03T00:25:21.534Z,0.00
2018-11-03T00:26:21.542Z,0.00
2018-11-03T00:27:21.552Z,0.00
2018-11-03T00:28:21.644Z,0.00
2018-11-03T00:29:21.568Z,0.00
2018-11-03T00:30:21.555Z,0.00
2018-11-03T00:31:21.561Z,0.00
2018-11-03T00:32:21.480Z,0.00
2018-11-03T00:33:21.495Z,0.00
2018-11-03T00:34:21.481Z,0.00
2018-11-03T00:35:21.486Z,0.00
2018-11-03T00:36:21.390Z,0.00
2018-11-03T00:37:21.398Z,0.00
2018-11-03T00:38:21.402Z,0.00
2018-11-03T00:39:21.745Z,0.00
2018-11-03T00:40:21.454Z,0.00
2018-11-03T00:41:21.320Z,0.00
2018-11-03T00:42:21.430Z,0.00
2018-11-03T00:43:21.645Z,0.00
2018-11-03T00:44:21.445Z,0.00
2018-11-03T00:45:21.453Z,0.00
2018-11-03T00:46:21.249Z,0.00
2018-11-03T00:47:21.260Z,0.00
2018-11-03T00:48:21.258Z,0.00
2018-11-03T00:49:21.366Z,0.00
2018-11-03T00:50:21.283Z,0.00
2018-11-03T00:51:21.276Z,0.00
2018-11-03T00:52:21.285Z,0.00
2018-11-03T00:53:21.186Z,0.00
2018-11-03T00:54:21.294Z,0.00
2018-11-03T00:55:21.227Z,0.00
2018-11-03T00:56:21.207Z,0.00
2018-11-03T00:57:21.217Z,0.00
2018-11-03T00:58:21.220Z,0.00
2018-11-03T00:59:21.226Z,0.00
2018-11-03T01:00:21.128Z,0.00
2018-11-03T01:01:21.138Z,0.00
2018-11-03T01:02:21.154Z,0.00
2018-11-03T01:03:21.156Z,0.00
2018-11-03T01:04:21.156Z,0.00
2018-11-03T01:05:21.060Z,0.00
2018-11-03T01:06:21.063Z,0.00
2018-11-03T01:07:21.069Z,0.00
2018-11-03T01:08:21.082Z,0.00
2018-11-03T01:09:21.199Z,0.00
2018-11-03T01:10:20.987Z,0.00
2018-11-03T01:11:20.995Z,0.00
2018-11-03T01:12:21.001Z,0.00
2018-11-03T01:13:21.006Z,0.00
2018-11-03T01:14:21.114Z,0.00
2018-11-03T01:15:21.026Z,0.00
2018-11-03T01:16:20.927Z,0.00
2018-11-03T01:17:20.931Z,0.00
2018-11-03T01:18:20.956Z,0.00
2018-11-03T01:19:21.045Z,0.00
2018-11-03T01:20:20.946Z,0.00
2018-11-03T01:21:20.972Z,0.00
2018-11-03T01:22:20.857Z,0.00
2018-11-03T01:23:20.872Z,0.00
2018-11-03T01:24:20.974Z,0.00
2018-11-03T01:25:20.879Z,0.00
2018-11-03T01:26:20.889Z,0.00
2018-11-03T01:27:20.902Z,0.00
2018-11-03T01:28:20.795Z,0.00
2018-11-03T01:29:20.906Z,0.00
2018-11-03T01:30:20.806Z,0.00
2018-11-03T01:31:20.812Z,0.00
2018-11-03T01:32:20.833Z,0.00
2018-11-03T01:33:20.846Z,0.00
2018-11-03T01:34:20.729Z,0.00
2018-11-03T01:35:20.841Z,0.00
2018-11-03T01:36:20.748Z,0.00
2018-11-03T01:37:20.755Z,0.00
2018-11-03T01:38:20.766Z,0.00
2018-11-03T01:39:20.761Z,0.00
2018-11-03T01:40:20.772Z,0.00
2018-11-03T01:41:20.694Z,0.00
2018-11-03T01:42:20.679Z,0.00
2018-11-03T01:43:20.684Z,0.00
2018-11-03T01:44:20.698Z,0.00
2018-11-03T01:45:20.806Z,0.00
2018-11-03T01:46:20.602Z,0.00
2018-11-03T01:47:20.611Z,0.00
2018-11-03T01:48:20.618Z,0.00
2018-11-03T01:49:20.624Z,0.00
2018-11-03T01:50:20.739Z,0.00
2018-11-03T01:51:20.648Z,0.00
2018-11-03T01:52:20.540Z,0.00
2018-11-03T01:53:20.547Z,0.00
2018-11-03T01:54:20.552Z,0.00
2018-11-03T01:55:20.666Z,0.00
2018-11-03T01:56:20.565Z,0.00
2018-11-03T01:57:20.573Z,0.00
2018-11-03T01:58:20.496Z,0.00
2018-11-03T01:59:20.484Z,0.00
2018-11-03T02:00:20.586Z,0.00
2018-11-03T02:01:20.503Z,0.00
2018-11-03T02:02:20.503Z,0.00
2018-11-03T02:03:20.512Z,0.00
2018-11-03T02:04:20.432Z,0.00
2018-11-03T02:05:20.419Z,0.00
2018-11-03T02:06:20.544Z,0.00
2018-11-03T02:07:20.429Z,0.00
2018-11-03T02:08:20.438Z,0.00
2018-11-03T02:09:20.343Z,0.00
2018-11-03T02:10:20.357Z,0.00
2018-11-03T02:11:20.451Z,0.00
2018-11-03T02:12:20.363Z,0.00
2018-11-03T02:13:20.360Z,0.00
2018-11-03T02:14:20.388Z,0.00
2018-11-03T02:15:20.272Z,0.00
2018-11-03T02:16:20.385Z,0.00
2018-11-03T02:17:20.285Z,0.00
2018-11-03T02:18:20.291Z,0.00
2018-11-03T02:19:20.297Z,0.00
2018-11-03T02:20:20.324Z,0.00
2018-11-03T02:21:20.309Z,0.00
2018-11-03T02:22:20.212Z,0.00
2018-11-03T02:23:20.219Z,0.00
2018-11-03T02:24:20.225Z,0.00
2018-11-03T02:25:20.233Z,0.00
2018-11-03T02:26:20.356Z,0.00
2018-11-03T02:27:20.157Z,0.00
2018-11-03T02:28:20.148Z,0.00
2018-11-03T02:29:20.176Z,0.00
2018-11-03T02:30:20.162Z,0.00
2018-11-03T02:31:20.168Z,0.00
2018-11-03T02:32:20.275Z,0.00
2018-11-03T02:33:20.077Z,0.00
2018-11-03T02:34:20.099Z,0.00
2018-11-03T02:35:20.091Z,0.00
2018-11-03T02:36:20.096Z,0.00
2018-11-03T02:37:20.207Z,0.00
2018-11-03T02:38:20.108Z,0.00
2018-11-03T02:39:20.014Z,0.00
2018-11-03T02:40:20.030Z,0.00
2018-11-03T02:41:20.025Z,0.00
2018-11-03T02:42:20.135Z,0.00
2018-11-03T02:43:20.039Z,0.00
2018-11-03T02:44:20.047Z,0.00
2018-11-03T02:45:19.950Z,0.00
2018-11-03T02:46:19.967Z,0.00
2018-11-03T02:47:20.065Z,0.00
2018-11-03T02:48:19.969Z,0.00
2018-11-03T02:49:19.974Z,0.00
2018-11-03T02:50:19.979Z,0.00
2018-11-03T02:51:19.884Z,0.00
2018-11-03T02:52:20.021Z,0.00
2018-11-03T02:53:19.896Z,0.00
2018-11-03T02:54:19.902Z,0.00
2018-11-03T02:55:19.909Z,0.00
2018-11-03T02:56:19.919Z,0.00
2018-11-03T02:57:19.818Z,0.00
2018-11-03T02:58:19.928Z,0.00
2018-11-03T02:59:19.839Z,0.00
2018-11-03T03:00:19.838Z,0.00
2018-11-03T03:01:19.845Z,0.00
2018-11-03T03:02:19.751Z,0.00
2018-11-03T03:03:19.857Z,0.00
2018-11-03T03:04:19.762Z,0.00
2018-11-03T03:05:19.786Z,0.00
2018-11-03T03:06:19.774Z,0.00
2018-11-03T03:07:19.780Z,0.00
2018-11-03T03:08:19.786Z,0.00
2018-11-03T03:09:19.689Z,0.00
2018-11-03T03:10:19.697Z,0.00
2018-11-03T03:11:19.727Z,0.00
2018-11-03T03:12:19.711Z,0.00
2018-11-03T03:13:19.819Z,0.00
2018-11-03T03:14:19.620Z,0.00
2018-11-03T03:15:19.626Z,0.00
2018-11-03T03:16:19.640Z,0.00
2018-11-03T03:17:19.654Z,0.00
2018-11-03T03:18:19.747Z,0.00
2018-11-03T03:19:19.651Z,0.00
2018-11-03T03:20:19.556Z,0.00
2018-11-03T03:21:19.560Z,0.00
2018-11-03T03:22:19.567Z,0.00
2018-11-03T03:23:19.690Z,0.00
2018-11-03T03:24:19.581Z,0.00
2018-11-03T03:25:19.586Z,0.00
2018-11-03T03:26:19.489Z,0.00
2018-11-03T03:27:19.497Z,0.00
2018-11-03T03:28:19.605Z,0.00
2018-11-03T03:29:19.609Z,0.00
2018-11-03T03:30:19.615Z,0.00
2018-11-03T03:31:19.523Z,0.00
2018-11-03T03:32:19.425Z,0.00
2018-11-03T03:33:19.432Z,0.00
2018-11-03T03:34:19.541Z,0.00
2018-11-03T03:35:19.459Z,0.00
2018-11-03T03:36:19.458Z,0.00
2018-11-03T03:37:19.461Z,0.00
2018-11-03T03:38:19.366Z,0.00
2018-11-03T03:39:19.470Z,0.00
2018-11-03T03:40:19.376Z,0.00
2018-11-03T03:41:19.394Z,0.00
2018-11-03T03:42:19.396Z,0.00
2018-11-03T03:43:19.392Z,0.00
2018-11-03T03:44:19.405Z,0.00
2018-11-03T03:45:19.305Z,0.00
2018-11-03T03:46:19.314Z,0.00
2018-11-03T03:47:19.324Z,0.00
2018-11-03T03:48:19.323Z,0.00
2018-11-03T03:49:19.329Z,0.00
2018-11-03T03:50:19.233Z,0.00
2018-11-03T03:51:19.241Z,0.00
2018-11-03T03:52:19.245Z,0.00
2018-11-03T03:53:19.293Z,0.00
2018-11-03T03:54:19.362Z,0.00
2018-11-03T03:55:19.171Z,0.00
2018-11-03T03:56:19.170Z,0.00
2018-11-03T03:57:19.177Z,0.00
2018-11-03T03:58:19.182Z,0.00
2018-11-03T03:59:19.316Z,0.00
2018-11-03T04:00:19.200Z,0.00
2018-11-03T04:01:19.097Z,0.00
2018-11-03T04:02:19.103Z,0.00
2018-11-03T04:03:19.109Z,0.00
2018-11-03T04:04:19.115Z,0.00
2018-11-03T04:05:19.225Z,0.00
2018-11-03T04:06:19.149Z,0.00
2018-11-03T04:07:19.648Z,0.00
2018-11-03T04:08:19.038Z,0.00
2018-11-03T04:09:19.045Z,0.00
2018-11-03T04:10:19.153Z,0.00
2018-11-03T04:11:19.058Z,0.00
2018-11-03T04:12:19.094Z,0.00
2018-11-03T04:13:18.969Z,0.00
2018-11-03T04:14:18.985Z,0.00
2018-11-03T04:15:19.082Z,0.00
2018-11-03T04:16:18.987Z,0.00
2018-11-03T04:17:18.995Z,0.00
2018-11-03T04:18:19.016Z,0.00
2018-11-03T04:19:18.906Z,0.00
2018-11-03T04:20:19.013Z,0.00
2018-11-03T04:21:18.916Z,0.00
2018-11-03T04:22:18.925Z,0.00
2018-11-03T04:23:18.937Z,0.00
2018-11-03T04:24:18.957Z,0.00
2018-11-03T04:25:18.945Z,0.00
2018-11-03T04:26:18.846Z,0.00
2018-11-03T04:27:18.852Z,0.00
2018-11-03T04:28:18.865Z,0.00
2018-11-03T04:29:18.864Z,0.00
2018-11-03T04:30:19.000Z,0.00
2018-11-03T04:31:18.776Z,0.00
2018-11-03T04:32:18.781Z,0.00
2018-11-03T04:33:18.787Z,0.00
2018-11-03T04:34:18.793Z,0.00
2018-11-03T04:35:18.800Z,0.00
2018-11-03T04:36:18.819Z,0.00
2018-11-03T04:37:18.711Z,0.00
2018-11-03T04:38:18.716Z,0.00
2018-11-03T04:39:18.723Z,0.00
2018-11-03T04:40:18.728Z,0.00
2018-11-03T04:41:18.851Z,0.00
2018-11-03T04:42:18.645Z,0.00
2018-11-03T04:43:18.653Z,0.00
2018-11-03T04:44:18.652Z,0.00
2018-11-03T04:45:18.701Z,0.00
2018-11-03T04:46:18.768Z,0.00
2018-11-03T04:47:18.677Z,0.00
2018-11-03T04:48:18.575Z,0.00
2018-11-03T04:49:18.592Z,0.00
2018-11-03T04:50:18.591Z,0.00
2018-11-03T04:51:18.698Z,0.00
2018-11-03T04:52:18.604Z,0.00
2018-11-03T04:53:18.607Z,0.00
2018-11-03T04:54:18.513Z,0.00
2018-11-03T04:55:18.688Z,0.00
2018-11-03T04:56:18.625Z,0.00
2018-11-03T04:57:18.537Z,0.00
2018-11-03T04:58:18.535Z,0.00
2018-11-03T04:59:18.541Z,0.00
2018-11-03T05:00:18.487Z,0.00
2018-11-03T05:01:18.567Z,0.00
2018-11-03T05:02:18.493Z,0.00
2018-11-03T05:03:18.464Z,0.00
2018-11-03T05:04:18.472Z,0.00
2018-11-03T05:05:18.379Z,0.00
2018-11-03T05:06:18.483Z,0.00
2018-11-03T05:07:18.400Z,0.00
2018-11-03T05:08:18.393Z,0.00
2018-11-03T05:09:18.399Z,0.00
2018-11-03T05:10:18.485Z,0.00
2018-11-03T05:11:18.312Z,0.00
2018-11-03T05:12:18.420Z,0.00
2018-11-03T05:13:18.341Z,0.00
2018-11-03T05:14:18.331Z,0.00
2018-11-03T05:15:18.339Z,0.00
2018-11-03T05:16:18.343Z,0.00
2018-11-03T05:17:18.349Z,0.00
2018-11-03T05:18:18.252Z,0.00
2018-11-03T05:19:18.269Z,0.00
2018-11-03T05:20:18.264Z,0.00
2018-11-03T05:21:18.319Z,0.00
2018-11-03T05:22:18.381Z,0.00
2018-11-03T05:23:18.181Z,0.00
2018-11-03T05:24:18.188Z,0.00
2018-11-03T05:25:18.207Z,0.00
2018-11-03T05:26:18.204Z,0.00
2018-11-03T05:27:18.310Z,0.00
2018-11-03T05:28:18.213Z,0.00
2018-11-03T05:29:18.116Z,0.00
2018-11-03T05:30:18.123Z,0.00
2018-11-03T05:31:18.226Z,0.00
2018-11-03T05:32:18.173Z,0.00
2018-11-03T05:33:18.244Z,0.00
2018-11-03T05:34:18.148Z,0.00
2018-11-03T05:35:18.052Z,0.00
2018-11-03T05:36:18.059Z,0.00
2018-11-03T05:37:18.065Z,0.00
2018-11-03T05:38:18.192Z,0.00
2018-11-03T05:39:18.078Z,0.00
2018-11-03T05:40:17.983Z,0.00
2018-11-03T05:41:17.988Z,0.00
2018-11-03T05:42:17.998Z,0.00
2018-11-03T05:43:18.106Z,0.00
2018-11-03T05:44:18.018Z,0.00
2018-11-03T05:45:18.017Z,0.00
2018-11-03T05:46:17.929Z,0.00
2018-11-03T05:47:17.930Z,0.00
2018-11-03T05:48:18.036Z,0.00
2018-11-03T05:49:17.942Z,0.00
2018-11-03T05:50:17.941Z,0.00
2018-11-03T05:51:17.948Z,0.00
2018-11-03T05:52:17.853Z,0.00
2018-11-03T05:53:17.982Z,0.00
2018-11-03T05:54:17.870Z,0.00
2018-11-03T05:55:17.985Z,0.00
2018-11-03T05:56:17.879Z,0.00
2018-11-03T05:57:17.886Z,0.00
2018-11-03T05:58:17.913Z,0.00
2018-11-03T05:59:17.794Z,0.00
2018-11-03T06:00:17.800Z,0.00
2018-11-03T06:01:17.806Z,0.00
2018-11-03T06:02:17.813Z,0.00
2018-11-03T06:03:17.926Z,0.00
2018-11-03T06:04:17.742Z,0.00
2018-11-03T06:05:17.730Z,0.00
2018-11-03T06:06:17.736Z,0.00
2018-11-03T06:07:17.745Z,0.00
2018-11-03T06:08:17.851Z,0.00
2018-11-03T06:09:17.656Z,0.00
2018-11-03T06:10:17.667Z,0.00
2018-11-03T06:11:17.676Z,0.00
2018-11-03T06:12:17.673Z,4.00
2018-11-03T06:13:17.781Z,0.00
2018-11-03T06:14:17.688Z,4.00
2018-11-03T06:15:17.596Z,0.00
2018-11-03T06:16:17.595Z,4.00
2018-11-03T06:17:17.611Z,4.00
2018-11-03T06:18:17.822Z,0.00
2018-11-03T06:19:17.613Z,4.00
2018-11-03T06:20:17.640Z,4.00
2018-11-03T06:21:17.530Z,4.00
2018-11-03T06:22:17.588Z,4.00
2018-11-03T06:23:17.549Z,4.00
2018-11-03T06:24:17.655Z,4.00
2018-11-03T06:25:17.550Z,8.00
2018-11-03T06:26:19.357Z,8.00
2018-11-03T06:27:17.467Z,8.00
2018-11-03T06:28:17.468Z,8.00
2018-11-03T06:29:17.574Z,8.00
2018-11-03T06:30:17.495Z,8.00
2018-11-03T06:31:17.484Z,8.00
2018-11-03T06:32:17.490Z,12.00
2018-11-03T06:33:17.416Z,12.00
2018-11-03T06:34:17.504Z,12.00
2018-11-03T06:35:17.466Z,16.00
2018-11-03T06:36:17.414Z,16.00
2018-11-03T06:37:17.423Z,16.00
2018-11-03T06:38:17.333Z,16.00
2018-11-03T06:39:17.434Z,20.00
2018-11-03T06:40:17.337Z,20.00
2018-11-03T06:41:17.342Z,20.00
2018-11-03T06:42:17.352Z,20.00
2018-11-03T06:43:17.357Z,24.00
2018-11-03T06:44:17.383Z,28.00
2018-11-03T06:45:17.268Z,24.00
2018-11-03T06:46:17.272Z,28.00
2018-11-03T06:47:17.407Z,28.00
2018-11-03T06:48:17.290Z,32.00
2018-11-03T06:49:17.393Z,32.00
2018-11-03T06:50:17.204Z,32.00
2018-11-03T06:51:17.202Z,32.00
2018-11-03T06:52:17.300Z,36.00
2018-11-03T06:53:17.213Z,40.00
2018-11-03T06:54:17.323Z,40.00
2018-11-03T06:55:17.228Z,44.00
2018-11-03T06:56:17.136Z,44.00
2018-11-03T06:57:17.142Z,44.00
2018-11-03T06:58:17.142Z,48.00
2018-11-03T06:59:17.172Z,48.00
2018-11-03T07:00:17.259Z,52.00
2018-11-03T07:01:17.064Z,52.00
2018-11-03T07:02:17.069Z,52.00
2018-11-03T07:03:17.072Z,52.00
2018-11-03T07:04:17.079Z,52.00
2018-11-03T07:05:17.293Z,56.00
2018-11-03T07:06:17.097Z,56.00
2018-11-03T07:07:16.997Z,60.00
2018-11-03T07:08:17.001Z,60.00
2018-11-03T07:09:17.011Z,60.00
2018-11-03T07:10:17.140Z,60.00
2018-11-03T07:11:17.060Z,60.00
2018-11-03T07:12:17.120Z,64.00
2018-11-03T07:13:17.145Z,64.00
2018-11-03T07:14:16.945Z,64.00
2018-11-03T07:15:17.050Z,64.00
2018-11-03T07:16:16.963Z,64.00
2018-11-03T07:17:16.960Z,64.00
2018-11-03T07:18:16.981Z,68.00
2018-11-03T07:19:16.867Z,68.00
2018-11-03T07:20:16.982Z,72.00
2018-11-03T07:21:16.880Z,72.00
2018-11-03T07:22:24.464Z,72.00
2018-11-03T07:23:16.895Z,76.00
2018-11-03T07:24:16.912Z,76.00
2018-11-03T07:25:16.903Z,76.00
2018-11-03T07:26:16.810Z,80.00
2018-11-03T07:27:16.870Z,80.00
2018-11-03T07:28:16.820Z,80.00
2018-11-03T07:29:16.827Z,80.00
2018-11-03T07:30:16.841Z,80.00
2018-11-03T07:31:16.840Z,88.00
2018-11-03T07:32:17.167Z,88.00
2018-11-03T07:33:16.756Z,84.00
2018-11-03T07:34:16.758Z,88.00
2018-11-03T07:35:16.772Z,88.00
2018-11-03T07:36:16.776Z,92.00
2018-11-03T07:37:16.677Z,92.00
2018-11-03T07:38:16.681Z,96.00
2018-11-03T07:39:16.696Z,96.00
2018-11-03T07:40:16.709Z,100.00
2018-11-03T07:41:16.845Z,100.00
2018-11-03T07:42:16.601Z,96.00
2018-11-03T07:43:16.607Z,100.00
2018-11-03T07:44:16.635Z,100.00
2018-11-03T07:45:16.628Z,100.00
2018-11-03T07:46:16.729Z,100.00
2018-11-03T07:47:16.633Z,104.00
2018-11-03T07:48:16.678Z,108.00
2018-11-03T07:49:16.877Z,104.00
2018-11-03T07:50:17.573Z,104.00
2018-11-03T07:51:16.663Z,104.00
2018-11-03T07:52:16.562Z,108.00
2018-11-03T07:53:16.569Z,112.00
2018-11-03T07:54:16.505Z,112.00
2018-11-03T07:55:16.502Z,112.00
2018-11-03T07:56:16.588Z,112.00
2018-11-03T07:57:16.492Z,112.00
2018-11-03T07:58:16.532Z,108.00
2018-11-03T08:00:27.312Z,108.00
2018-11-03T08:01:26.970Z,108.00
2018-11-03T08:02:26.868Z,104.00
2018-11-03T08:03:26.773Z,104.00
2018-11-03T08:04:26.811Z,104.00
2018-11-03T08:05:26.916Z,100.00
2018-11-03T08:06:26.969Z,104.00
2018-11-03T08:07:26.816Z,96.00
2018-11-03T08:08:26.830Z,96.00
2018-11-03T08:09:26.706Z,96.00
2018-11-03T08:10:26.713Z,100.00
2018-11-03T08:11:26.840Z,92.00
2018-11-03T08:12:26.757Z,100.00
2018-11-03T08:13:26.730Z,100.00
2018-11-03T08:14:26.739Z,104.00
2018-11-03T08:15:26.715Z,104.00
2018-11-03T08:16:26.759Z,104.00
2018-11-03T08:17:26.660Z,104.00
2018-11-03T08:18:27.452Z,104.00
2018-11-03T08:19:26.718Z,108.00
2018-11-03T08:20:26.683Z,100.00
2018-11-03T08:21:26.942Z,100.00
2018-11-03T08:24:15.491Z,104.00
2018-11-03T08:27:52.540Z,104.00
2018-11-03T08:28:52.048Z,104.00
2018-11-03T08:29:52.304Z,104.00
2018-11-03T08:30:52.039Z,100.00
2018-11-03T08:31:52.119Z,96.00
2018-11-03T08:32:51.965Z,100.00
2018-11-03T08:33:52.000Z,96.00
2018-11-03T08:34:51.992Z,100.00
2018-11-03T08:35:51.979Z,100.00
2018-11-03T08:36:51.899Z,96.00
2018-11-03T08:39:01.241Z,96.00
2018-11-03T08:44:30.874Z,88.00
2018-11-03T08:45:30.516Z,84.00
2018-11-03T08:46:30.946Z,84.00
2018-11-03T08:47:30.564Z,88.00
2018-11-03T08:48:33.039Z,92.00
2018-11-03T08:55:51.876Z,92.00
2018-11-03T08:57:04.371Z,96.00
2018-11-03T08:59:00.976Z,100.00
2018-11-03T09:01:12.241Z,104.00
2018-11-03T09:03:23.788Z,100.00
2018-11-03T09:04:23.875Z,100.00
2018-11-03T09:08:13.152Z,100.00
2018-11-03T09:10:40.377Z,104.00
2018-11-03T09:11:40.233Z,104.00
2018-11-03T09:12:40.049Z,108.00
2018-11-03T09:13:39.900Z,108.00
2018-11-03T09:14:39.856Z,112.00
2018-11-03T09:15:39.749Z,108.00
2018-11-03T09:16:39.742Z,108.00
2018-11-03T09:17:39.776Z,112.00
2018-11-03T09:18:39.854Z,112.00
2018-11-03T09:19:39.654Z,116.00
2018-11-03T09:20:39.663Z,112.00
2018-11-03T09:21:39.722Z,112.00
2018-11-03T09:22:39.780Z,112.00
2018-11-03T09:23:39.799Z,116.00
2018-11-03T09:24:39.694Z,116.00
2018-11-03T09:25:39.635Z,120.00
2018-11-03T09:26:39.603Z,120.00
2018-11-03T09:27:39.598Z,128.00
2018-11-03T09:28:39.705Z,124.00
2018-11-03T09:29:39.633Z,128.00
2018-11-03T09:30:39.681Z,128.00
2018-11-03T09:31:39.531Z,128.00
2018-11-03T09:32:39.538Z,132.00
2018-11-03T09:33:39.754Z,128.00
2018-11-03T09:34:39.654Z,132.00
2018-11-03T09:35:39.558Z,132.00
2018-11-03T09:36:39.568Z,136.00
2018-11-03T09:37:39.465Z,136.00
2018-11-03T09:38:39.642Z,136.00
2018-11-03T09:41:11.275Z,140.00
2018-11-03T09:42:29.684Z,140.00
2018-11-03T09:47:34.950Z,144.00
2018-11-03T09:48:33.893Z,144.00
2018-11-03T09:50:50.677Z,148.00
2018-11-03T09:51:50.130Z,144.00
2018-11-03T09:52:49.829Z,148.00
2018-11-03T09:53:52.211Z,148.00
2018-11-03T09:54:50.934Z,152.00
2018-11-03T09:55:49.841Z,156.00
2018-11-03T09:56:49.957Z,156.00
2018-11-03T09:57:49.825Z,160.00
2018-11-03T09:58:49.779Z,160.00
2018-11-03T09:59:49.872Z,168.00
2018-11-03T10:00:49.743Z,164.00
2018-11-03T10:01:49.770Z,168.00
2018-11-03T10:02:49.763Z,168.00
2018-11-03T10:03:49.775Z,168.00
2018-11-03T10:04:49.761Z,172.00
2018-11-03T10:05:49.667Z,172.00
2018-11-03T10:06:49.677Z,164.00
2018-11-03T10:07:49.784Z,168.00
2018-11-03T10:08:49.697Z,160.00
2018-11-03T10:09:49.802Z,168.00
2018-11-03T10:10:49.634Z,176.00
2018-11-03T10:11:52.514Z,176.00
2018-11-03T10:15:33.773Z,172.00
2018-11-03T10:16:33.206Z,168.00
2018-11-03T10:17:33.089Z,168.00
2018-11-03T10:18:33.026Z,168.00
2018-11-03T10:19:33.134Z,172.00
2018-11-03T10:20:33.324Z,164.00
2018-11-03T10:21:32.874Z,164.00
2018-11-03T10:22:33.003Z,156.00
2018-11-03T10:23:32.944Z,156.00
2018-11-03T10:24:32.908Z,152.00
2018-11-03T10:25:32.922Z,152.00
2018-11-03T10:26:32.857Z,156.00
2018-11-03T10:27:32.827Z,160.00
2018-11-03T10:28:32.823Z,160.00
2018-11-03T10:29:33.343Z,164.00
2018-11-03T10:30:33.764Z,164.00
2018-11-03T10:31:32.749Z,168.00
2018-11-03T10:32:32.849Z,168.00
2018-11-03T10:33:32.845Z,164.00
2018-11-03T10:34:33.188Z,164.00
2018-11-03T10:35:33.810Z,168.00
2018-11-03T10:36:32.776Z,168.00
2018-11-03T10:37:32.892Z,168.00
2018-11-03T10:38:33.189Z,164.00
2018-11-03T10:39:32.988Z,168.00
2018-11-03T10:40:34.562Z,168.00
2018-11-03T10:41:33.348Z,168.00
2018-11-03T10:42:32.710Z,164.00
2018-11-03T10:43:32.623Z,168.00
2018-11-03T10:44:33.080Z,160.00
2018-11-03T10:45:33.240Z,160.00
2018-11-03T10:46:33.884Z,160.00
2018-11-03T10:47:33.350Z,160.00
2018-11-03T10:48:32.576Z,160.00
2018-11-03T10:49:32.601Z,160.00
2018-11-03T10:50:33.292Z,164.00
2018-11-03T10:51:32.560Z,164.00
2018-11-03T10:52:32.821Z,168.00
2018-11-03T10:53:32.621Z,168.00
2018-11-03T10:54:32.608Z,172.00
2018-11-03T10:55:32.584Z,172.00
2018-11-03T10:56:32.635Z,168.00
2018-11-03T10:57:32.506Z,168.00
2018-11-03T10:58:32.496Z,168.00
2018-11-03T10:59:32.504Z,164.00
2018-11-03T11:00:32.845Z,164.00
2018-11-03T11:01:32.434Z,168.00
2018-11-03T11:02:32.427Z,164.00
2018-11-03T11:03:32.500Z,176.00
2018-11-03T11:04:32.439Z,172.00
2018-11-03T11:05:32.454Z,168.00
2018-11-03T11:06:32.546Z,164.00
2018-11-03T11:07:32.349Z,164.00
2018-11-03T11:08:32.354Z,164.00
2018-11-03T11:09:32.376Z,164.00
2018-11-03T11:10:32.382Z,164.00
2018-11-03T11:11:32.475Z,164.00
2018-11-03T11:12:32.289Z,168.00
2018-11-03T11:13:32.366Z,164.00
2018-11-03T11:14:32.293Z,164.00
2018-11-03T11:15:32.301Z,168.00
2018-11-03T11:16:32.610Z,164.00
2018-11-03T11:17:32.341Z,164.00
2018-11-03T11:18:32.216Z,164.00
2018-11-03T11:19:32.226Z,172.00
2018-11-03T11:20:32.236Z,172.00
2018-11-03T11:21:32.476Z,172.00
2018-11-03T11:22:32.256Z,168.00
2018-11-03T11:23:32.326Z,172.00
2018-11-03T11:24:32.191Z,168.00
2018-11-03T11:25:32.213Z,168.00
2018-11-03T11:26:32.267Z,168.00
2018-11-03T11:27:32.192Z,168.00
2018-11-03T11:28:32.192Z,172.00
2018-11-03T11:29:32.185Z,168.00
2018-11-03T11:30:32.194Z,172.00
2018-11-03T11:31:32.274Z,176.00
2018-11-03T11:32:32.251Z,176.00
2018-11-03T11:33:32.112Z,176.00
2018-11-03T11:34:32.120Z,180.00
2018-11-03T11:35:32.128Z,176.00
2018-11-03T11:36:32.033Z,180.00
2018-11-03T11:37:32.224Z,180.00
2018-11-03T11:38:32.100Z,180.00
2018-11-03T11:39:32.041Z,176.00
2018-11-03T11:40:32.044Z,180.00
2018-11-03T11:41:32.055Z,176.00
2018-11-03T11:42:32.057Z,180.00
2018-11-03T11:43:31.999Z,176.00
2018-11-03T11:44:31.974Z,180.00
2018-11-03T11:45:32.003Z,180.00
2018-11-03T11:46:31.991Z,184.00
2018-11-03T11:47:32.102Z,180.00
2018-11-03T11:48:31.894Z,176.00
2018-11-03T11:49:31.904Z,176.00
2018-11-03T11:50:31.902Z,176.00
2018-11-03T11:51:31.905Z,176.00
2018-11-03T11:52:32.025Z,172.00
2018-11-03T11:53:31.959Z,168.00
2018-11-03T11:54:31.824Z,172.00
2018-11-03T11:55:31.833Z,164.00
2018-11-03T11:56:31.863Z,168.00
2018-11-03T11:57:31.844Z,164.00
2018-11-03T11:58:31.958Z,168.00
2018-11-03T11:59:31.859Z,164.00
2018-11-03T12:00:31.833Z,164.00
2018-11-03T12:03:09.762Z,160.00
2018-11-03T12:04:09.585Z,164.00
2018-11-03T12:05:09.386Z,164.00
2018-11-03T12:06:09.443Z,164.00
2018-11-03T12:07:09.390Z,160.00
2018-11-03T12:08:09.512Z,156.00
2018-11-03T12:09:09.405Z,156.00
2018-11-03T12:10:09.529Z,152.00
2018-11-03T12:11:09.300Z,148.00
2018-11-03T12:12:09.311Z,148.00
2018-11-03T12:13:09.333Z,148.00
2018-11-03T12:14:09.443Z,140.00
2018-11-03T12:15:09.434Z,140.00
2018-11-03T12:16:10.385Z,140.00
2018-11-03T12:17:09.237Z,136.00
2018-11-03T12:18:09.252Z,132.00
2018-11-03T12:19:09.366Z,136.00
2018-11-03T12:20:09.274Z,132.00
2018-11-03T12:21:09.266Z,132.00
2018-11-03T12:22:09.274Z,128.00
2018-11-03T12:23:09.176Z,128.00
2018-11-03T12:24:09.293Z,120.00
2018-11-03T12:25:09.190Z,116.00
2018-11-03T12:26:09.196Z,120.00
2018-11-03T12:27:09.207Z,124.00
2018-11-03T12:28:09.206Z,120.00
2018-11-03T12:29:09.318Z,124.00
2018-11-03T12:30:09.125Z,124.00
2018-11-03T12:31:09.132Z,124.00
2018-11-03T12:32:09.132Z,124.00
2018-11-03T12:33:09.142Z,124.00
2018-11-03T12:34:09.246Z,120.00
2018-11-03T12:35:09.053Z,120.00
2018-11-03T12:36:09.058Z,120.00
2018-11-03T12:37:09.059Z,120.00
2018-11-03T12:38:09.054Z,120.00
2018-11-03T12:39:09.079Z,116.00
2018-11-03T12:40:09.179Z,112.00
2018-11-03T12:41:09.033Z,112.00
2018-11-03T12:42:09.002Z,112.00
2018-11-03T12:43:09.001Z,116.00
2018-11-03T12:44:09.012Z,116.00
2018-11-03T12:45:09.161Z,116.00
2018-11-03T12:46:09.018Z,112.00
2018-11-03T12:47:08.927Z,108.00
2018-11-03T12:48:08.987Z,108.00
2018-11-03T12:49:08.941Z,108.00
2018-11-03T12:50:09.063Z,108.00
2018-11-03T12:51:08.944Z,104.00
2018-11-03T12:52:08.939Z,104.00
2018-11-03T12:53:08.860Z,104.00
2018-11-03T12:54:08.865Z,104.00
2018-11-03T12:55:08.969Z,100.00
2018-11-03T12:56:08.873Z,96.00
2018-11-03T12:57:08.894Z,100.00
2018-11-03T12:58:08.889Z,96.00
2018-11-03T12:59:08.829Z,96.00
2018-11-03T13:00:08.794Z,96.00
2018-11-03T13:01:08.920Z,100.00
2018-11-03T13:02:08.824Z,96.00
2018-11-03T13:03:08.864Z,96.00
2018-11-03T13:04:08.826Z,96.00
2018-11-03T13:05:08.816Z,96.00
2018-11-03T13:06:08.826Z,96.00
2018-11-03T13:07:08.755Z,96.00
2018-11-03T13:08:08.871Z,96.00
2018-11-03T13:09:08.753Z,92.00
2018-11-03T13:10:08.769Z,92.00
2018-11-03T13:11:08.753Z,92.00
2018-11-03T13:12:08.724Z,92.00
2018-11-03T13:13:08.671Z,92.00
2018-11-03T13:14:08.664Z,88.00
2018-11-03T13:15:08.690Z,88.00
2018-11-03T13:16:08.782Z,84.00
2018-11-03T13:17:08.585Z,84.00
2018-11-03T13:18:08.632Z,84.00
2018-11-03T13:19:08.598Z,88.00
2018-11-03T13:20:08.604Z,88.00
2018-11-03T13:21:08.710Z,88.00
2018-11-03T13:22:08.615Z,88.00
2018-11-03T13:23:08.549Z,88.00
2018-11-03T13:24:08.549Z,88.00
2018-11-03T13:25:08.533Z,88.00
2018-11-03T13:26:08.643Z,88.00
2018-11-03T13:27:08.572Z,84.00
2018-11-03T13:28:08.548Z,84.00
2018-11-03T13:29:08.457Z,80.00
2018-11-03T13:30:08.492Z,76.00
2018-11-03T13:31:08.568Z,76.00
2018-11-03T13:32:08.473Z,76.00
2018-11-03T13:33:08.478Z,80.00